Tiverton, RI (02878)

7:54 AM EST on December 10, 2016 (GMT -0500)
Village at Mount Hope Bay | | Change Station

Elev 95 ft 41.65 °N, 71.20 °W | Updated 5 minutes ago

Clear
Clear
23.0 °F
Feels Like 13 °F
N
10.0
Wind Variable Wind from WNW
Gusts 21.0 mph

Today
High -- | Low -- °F
--% Chance of Precip.
Yesterday
High -- | Low -- °F
Precip. -- in
Pressure 30.30 in
Visibility 10.0 miles
Clouds Clear
Windchill 13 °F
Dew Point 11 °F
Humidity 60%
Rainfall 0.00 in
Snow Depth Not available.
7:01 AM 4:14 PM
Waxing Gibbous, 83% visible
METAR KUUU 101153Z AUTO 31009KT 10SM CLR M06/M12 A3029 RMK AO2 SLP258 T10561122 11033 21056 53017
Pressure 30.30 in
Visibility 10.0 miles
Clouds Clear
Windchill 13 °F
Dew Point 11 °F
Humidity 60%
Rainfall 0.00 in
Snow Depth Not available.
7:01 AM 4:14 PM
Waxing Gibbous, 83% visible
METAR KUUU 101153Z AUTO 31009KT 10SM CLR M06/M12 A3029 RMK AO2 SLP258 T10561122 11033 21056 53017

10-Day Weather Forecast

Almanac

Astronomy

Dec. 10, 2016 Rise Set
Actual Time
Civil Twilight
Nautical Twilight
Astronomical Twilight
Moon
Length of Visible Light
Length of Day
Tomorrow will be .
, % of the Moon is Illuminated

Today's Extremes

State Highs State Lows

Community

WunderPhotos

Upload Photos

1,956,540 photos uploaded!

WunderBlog® & News

Nearby

Air Quality

  Air Quality AQ Index Pollutant
Not available.

Snow Depth

Station Depth Elevation

Earthquake Activity

City Distance Mag. Time & Date
Minimum magnitude displayed is 2.5.

Coastal Water Temperatures

Place Temperature

Stations

Nearby Weather Stations

Station Location Temp. Windchill Dew Point Humidity Wind Precip. Elev Updated Type
                   

Watches & Warnings

There are currently no watches in effect.